Gibsonville, North Carolina
Current Conditions -  °F | °C
As of 12:54 PM on Tuesday 21 Oct 2014 (Local Time) from KBUY Reporting Station
Few Clouds Few Clouds  
Wind Chill: 71°   Ceiling: Unl
Heat Index: 71°   Visibility: 10mi
Dew Point: 46°   Wind: 13mph
Humidity: 41%   Direction: 270°W
Pressure: 29.89"   Gusts: 16mph
Location:  36.11°N, 79.54°W
Report Text: KBUY 211654Z AUTO 27011G14KT 10SM FEW050 22/08 A2989 RMK AO2 SLP118 T02170078
Loading
Personal Weather Stations






























Interactive Weather Map
Tropical Storm Tracking
New forecast layout! Learn more

10-Day Weather Forecast

Advertisements
Track Severe Weather on mobile